createdAt,value
2018-07-19T00:00:24.859Z,7.00
2018-07-19T00:01:24.842Z,7.40
2018-07-19T00:02:24.826Z,7.30
2018-07-19T00:03:24.830Z,7.60
2018-07-19T00:04:24.793Z,7.70
2018-07-19T00:05:24.774Z,7.20
2018-07-19T00:06:24.758Z,7.40
2018-07-19T00:07:24.740Z,7.10
2018-07-19T00:08:24.724Z,7.70
2018-07-19T00:09:24.717Z,7.10
2018-07-19T00:10:24.691Z,7.10
2018-07-19T00:11:24.674Z,7.40
2018-07-19T00:12:24.655Z,7.90
2018-07-19T00:13:24.640Z,7.40
2018-07-19T00:14:24.636Z,7.10
2018-07-19T00:15:24.605Z,7.50
2018-07-19T00:16:24.589Z,7.70
2018-07-19T00:17:24.570Z,7.80
2018-07-19T00:18:24.555Z,8.00
2018-07-19T00:19:24.550Z,7.70
2018-07-19T00:20:24.520Z,7.20
2018-07-19T00:21:24.503Z,7.30
2018-07-19T00:22:24.487Z,7.50
2018-07-19T00:23:24.469Z,7.40
2018-07-19T00:24:24.469Z,7.30
2018-07-19T00:25:24.436Z,7.70
2018-07-19T00:26:24.422Z,7.50
2018-07-19T00:27:24.400Z,8.00
2018-07-19T00:28:24.382Z,7.40
2018-07-19T00:29:24.368Z,7.80
2018-07-19T00:30:24.364Z,7.80
2018-07-19T00:31:24.333Z,6.90
2018-07-19T00:32:24.318Z,7.30
2018-07-19T00:33:24.300Z,7.80
2018-07-19T00:34:24.283Z,7.00
2018-07-19T00:35:24.277Z,7.50
2018-07-19T00:36:24.249Z,8.00
2018-07-19T00:37:24.232Z,7.60
2018-07-19T00:38:24.215Z,7.90
2018-07-19T00:39:24.196Z,8.10
2018-07-19T00:40:24.197Z,7.80
2018-07-19T00:41:24.165Z,7.90
2018-07-19T00:42:24.147Z,7.90
2018-07-19T00:43:24.131Z,8.00
2018-07-19T00:44:24.116Z,7.90
2018-07-19T00:45:24.096Z,7.70
2018-07-19T00:46:24.090Z,7.90
2018-07-19T00:47:24.061Z,7.00
2018-07-19T00:48:24.045Z,7.80
2018-07-19T00:49:24.027Z,8.20
2018-07-19T00:50:24.010Z,7.50
2018-07-19T00:51:24.002Z,7.90
2018-07-19T00:52:23.975Z,7.60
2018-07-19T00:53:23.957Z,7.60
2018-07-19T00:54:23.940Z,7.70
2018-07-19T00:55:23.923Z,8.30
2018-07-19T00:56:23.915Z,8.40
2018-07-19T00:57:23.888Z,8.50
2018-07-19T00:58:23.874Z,8.70
2018-07-19T00:59:23.853Z,8.90
2018-07-19T01:00:23.836Z,8.20
2018-07-19T01:01:23.836Z,8.20
2018-07-19T01:02:23.803Z,8.60
2018-07-19T01:03:23.787Z,8.60
2018-07-19T01:04:23.767Z,8.30
2018-07-19T01:05:23.750Z,7.80
2018-07-19T01:06:23.735Z,8.40
2018-07-19T01:07:23.727Z,8.70
2018-07-19T01:08:23.699Z,8.40
2018-07-19T01:09:23.681Z,8.20
2018-07-19T01:10:23.664Z,8.30
2018-07-19T01:11:23.647Z,8.10
2018-07-19T01:12:23.638Z,8.30
2018-07-19T01:13:23.612Z,7.80
2018-07-19T01:14:23.596Z,8.60
2018-07-19T01:15:23.574Z,9.00
2018-07-19T01:16:23.559Z,7.80
2018-07-19T01:17:23.558Z,8.00
2018-07-19T01:18:23.528Z,7.90
2018-07-19T01:19:23.506Z,8.10
2018-07-19T01:20:23.490Z,7.80
2018-07-19T01:21:23.472Z,8.50
2018-07-19T01:22:23.453Z,8.80
2018-07-19T01:23:23.446Z,8.70
2018-07-19T01:24:23.419Z,9.10
2018-07-19T01:25:23.403Z,8.40
2018-07-19T01:26:23.392Z,8.70
2018-07-19T01:27:23.369Z,8.30
2018-07-19T01:28:23.359Z,8.10
2018-07-19T01:29:23.331Z,8.30
2018-07-19T01:30:23.314Z,8.40
2018-07-19T01:31:23.296Z,8.70
2018-07-19T01:32:23.279Z,8.80
2018-07-19T01:33:23.282Z,8.70
2018-07-19T01:34:23.247Z,9.10
2018-07-19T01:35:23.226Z,9.20
2018-07-19T01:36:23.209Z,9.20
2018-07-19T01:37:23.191Z,9.10
2018-07-19T01:38:23.174Z,9.80
2018-07-19T01:39:23.168Z,9.50
2018-07-19T01:40:23.138Z,9.20
2018-07-19T01:41:23.120Z,9.70
2018-07-19T01:42:23.102Z,9.10
2018-07-19T01:43:23.084Z,9.00
2018-07-19T01:44:23.082Z,9.40
2018-07-19T01:45:23.050Z,9.20
2018-07-19T01:46:23.033Z,10.30
2018-07-19T01:47:23.014Z,9.40
2018-07-19T01:48:22.996Z,9.80
2018-07-19T01:49:22.978Z,9.40
2018-07-19T01:50:22.972Z,9.40
2018-07-19T01:51:22.944Z,9.20
2018-07-19T01:52:22.941Z,9.00
2018-07-19T01:53:22.909Z,9.60
2018-07-19T01:54:22.891Z,9.40
2018-07-19T01:55:22.888Z,9.80
2018-07-19T01:56:22.855Z,9.00
2018-07-19T01:57:22.838Z,8.80
2018-07-19T01:58:22.819Z,9.40
2018-07-19T01:59:22.801Z,9.10
2018-07-19T02:00:22.793Z,9.90
2018-07-19T02:01:22.767Z,9.30
2018-07-19T02:02:22.750Z,9.50
2018-07-19T02:03:22.729Z,9.30
2018-07-19T02:04:22.713Z,9.60
2018-07-19T02:05:22.712Z,9.10
2018-07-19T02:06:22.679Z,8.80
2018-07-19T02:07:22.704Z,8.70
2018-07-19T02:08:22.641Z,8.80
2018-07-19T02:09:22.624Z,9.70
2018-07-19T02:10:22.607Z,8.60
2018-07-19T02:11:22.597Z,9.00
2018-07-19T02:12:22.572Z,10.60
2018-07-19T02:13:22.552Z,9.40
2018-07-19T02:14:22.537Z,10.50
2018-07-19T02:15:22.517Z,11.00
2018-07-19T02:16:22.509Z,11.20
2018-07-19T02:17:22.480Z,11.00
2018-07-19T02:18:22.467Z,11.10
2018-07-19T02:19:22.448Z,11.20
2018-07-19T02:20:22.425Z,12.20
2018-07-19T02:21:22.420Z,12.00
2018-07-19T02:22:22.392Z,11.90
2018-07-19T02:23:22.373Z,11.80
2018-07-19T02:24:22.355Z,11.40
2018-07-19T02:25:22.338Z,11.20
2018-07-19T02:26:22.332Z,11.20
2018-07-19T02:27:22.302Z,11.40
2018-07-19T02:28:22.285Z,11.50
2018-07-19T02:29:22.266Z,12.10
2018-07-19T02:30:22.250Z,11.40
2018-07-19T02:31:22.245Z,11.00
2018-07-19T02:32:22.213Z,10.40
2018-07-19T02:33:22.194Z,10.40
2018-07-19T02:34:22.176Z,10.50
2018-07-19T02:35:22.158Z,10.90
2018-07-19T02:36:22.139Z,11.20
2018-07-19T02:37:22.132Z,11.20
2018-07-19T02:38:22.103Z,11.60
2018-07-19T02:39:22.085Z,11.30
2018-07-19T02:40:22.068Z,11.50
2018-07-19T02:41:22.050Z,12.10
2018-07-19T02:42:22.042Z,11.80
2018-07-19T02:43:22.020Z,11.80
2018-07-19T02:44:21.996Z,10.90
2018-07-19T02:45:21.980Z,10.70
2018-07-19T02:46:21.959Z,11.60
2018-07-19T02:47:21.951Z,10.80
2018-07-19T02:48:21.923Z,10.70
2018-07-19T02:49:21.904Z,11.50
2018-07-19T02:50:21.886Z,11.60
2018-07-19T02:51:21.869Z,11.50
2018-07-19T02:52:21.865Z,11.10
2018-07-19T02:53:21.832Z,11.00
2018-07-19T02:54:21.818Z,10.70
2018-07-19T02:55:21.795Z,10.60
2018-07-19T02:56:21.777Z,10.50
2018-07-19T02:57:21.758Z,9.80
2018-07-19T02:58:21.753Z,9.60
2018-07-19T02:59:21.722Z,9.30
2018-07-19T03:00:21.706Z,9.80
2018-07-19T03:01:21.685Z,9.10
2018-07-19T03:02:21.672Z,10.30
2018-07-19T03:03:21.663Z,9.80
2018-07-19T03:04:21.632Z,8.90
2018-07-19T03:05:21.615Z,9.20
2018-07-19T03:06:21.598Z,9.50
2018-07-19T03:07:21.579Z,10.00
2018-07-19T03:08:21.559Z,9.60
2018-07-19T03:09:21.552Z,9.90
2018-07-19T03:10:21.524Z,10.70
2018-07-19T03:11:21.506Z,10.60
2018-07-19T03:12:21.487Z,10.20
2018-07-19T03:13:21.478Z,9.90
2018-07-19T03:14:21.462Z,9.90
2018-07-19T03:15:21.436Z,10.10
2018-07-19T03:16:21.415Z,10.70
2018-07-19T03:17:21.397Z,10.40
2018-07-19T03:18:21.379Z,9.70
2018-07-19T03:19:21.371Z,10.40
2018-07-19T03:20:21.341Z,10.10
2018-07-19T03:21:21.324Z,9.90
2018-07-19T03:22:21.308Z,10.00
2018-07-19T03:23:21.289Z,9.90
2018-07-19T03:24:21.286Z,10.90
2018-07-19T03:25:21.251Z,10.60
2018-07-19T03:26:21.234Z,10.80
2018-07-19T03:27:21.214Z,10.60
2018-07-19T03:28:21.197Z,10.10
2018-07-19T03:29:21.178Z,10.50
2018-07-19T03:30:21.174Z,9.90
2018-07-19T03:31:21.143Z,10.60
2018-07-19T03:32:21.124Z,10.20
2018-07-19T03:33:21.106Z,10.10
2018-07-19T03:34:21.088Z,10.70
2018-07-19T03:35:21.079Z,10.50
2018-07-19T03:36:21.050Z,10.30
2018-07-19T03:37:21.040Z,10.60
2018-07-19T03:38:21.017Z,10.40
2018-07-19T03:39:20.999Z,10.80
2018-07-19T03:40:20.993Z,10.40
2018-07-19T03:41:20.960Z,10.70
2018-07-19T03:42:20.941Z,10.30
2018-07-19T03:43:20.923Z,10.40
2018-07-19T03:44:20.905Z,10.40
2018-07-19T03:45:20.889Z,9.90
2018-07-19T03:46:20.877Z,10.10
2018-07-19T03:47:20.849Z,9.60
2018-07-19T03:48:20.833Z,9.80
2018-07-19T03:49:20.813Z,9.90
2018-07-19T03:50:20.797Z,10.20
2018-07-19T03:51:20.787Z,10.30
2018-07-19T03:52:20.761Z,11.20
2018-07-19T03:53:20.739Z,10.60
2018-07-19T03:54:20.725Z,10.30
2018-07-19T03:55:20.703Z,9.60
2018-07-19T03:56:20.697Z,10.40
2018-07-19T03:57:20.667Z,10.40
2018-07-19T03:58:20.653Z,10.40
2018-07-19T03:59:20.631Z,10.30
2018-07-19T04:00:20.614Z,10.30
2018-07-19T04:01:20.617Z,10.30
2018-07-19T04:02:20.576Z,10.00
2018-07-19T04:03:20.555Z,10.50
2018-07-19T04:04:20.541Z,10.00
2018-07-19T04:05:20.522Z,10.50
2018-07-19T04:06:20.503Z,10.20
2018-07-19T04:07:20.495Z,9.80
2018-07-19T04:08:20.467Z,10.30
2018-07-19T04:09:20.449Z,9.60
2018-07-19T04:10:20.431Z,10.20
2018-07-19T04:11:20.412Z,9.80
2018-07-19T04:12:20.411Z,8.90
2018-07-19T04:13:20.376Z,9.90
2018-07-19T04:14:20.359Z,9.70
2018-07-19T04:15:20.338Z,8.80
2018-07-19T04:16:20.321Z,9.80
2018-07-19T04:17:20.304Z,8.90
2018-07-19T04:18:20.294Z,8.90
2018-07-19T04:19:20.266Z,9.60
2018-07-19T04:20:20.248Z,10.10
2018-07-19T04:21:20.231Z,9.00
2018-07-19T04:22:20.213Z,9.50
2018-07-19T04:23:20.209Z,9.20
2018-07-19T04:24:20.175Z,9.70
2018-07-19T04:25:20.158Z,9.20
2018-07-19T04:26:20.138Z,9.10
2018-07-19T04:27:20.120Z,9.80
2018-07-19T04:28:20.115Z,9.20
2018-07-19T04:29:20.087Z,9.50
2018-07-19T04:30:20.066Z,9.10
2018-07-19T04:31:20.046Z,10.50
2018-07-19T04:32:20.041Z,9.60
2018-07-19T04:33:20.021Z,9.30
2018-07-19T04:34:19.994Z,9.40
2018-07-19T04:35:19.974Z,9.10
2018-07-19T04:36:19.956Z,9.50
2018-07-19T04:37:19.938Z,9.40
2018-07-19T04:38:19.969Z,9.70
2018-07-19T04:39:19.914Z,9.50
2018-07-19T04:40:19.883Z,9.70
2018-07-19T04:41:19.866Z,10.10
2018-07-19T04:42:19.851Z,9.80
2018-07-19T04:43:19.829Z,8.90
2018-07-19T04:44:19.826Z,9.40
2018-07-19T04:45:19.793Z,8.80
2018-07-19T04:46:19.776Z,9.40
2018-07-19T04:47:19.759Z,9.20
2018-07-19T04:48:19.784Z,8.80
2018-07-19T04:49:19.725Z,9.10
2018-07-19T04:50:19.744Z,9.30
2018-07-19T04:51:19.684Z,9.00
2018-07-19T04:52:19.666Z,9.60
2018-07-19T04:53:19.651Z,8.20
2018-07-19T04:54:19.631Z,8.90
2018-07-19T04:55:19.629Z,8.70
2018-07-19T04:56:19.595Z,8.80
2018-07-19T04:57:19.580Z,8.40
2018-07-19T04:58:19.559Z,8.90
2018-07-19T04:59:19.540Z,9.00
2018-07-19T05:00:19.546Z,8.60
2018-07-19T05:01:19.505Z,8.70
2018-07-19T05:02:19.487Z,9.00
2018-07-19T05:03:19.469Z,8.70
2018-07-19T05:04:19.450Z,8.30
2018-07-19T05:05:19.435Z,8.10
2018-07-19T05:06:19.428Z,8.90
2018-07-19T05:07:19.399Z,8.80
2018-07-19T05:08:19.379Z,8.20
2018-07-19T05:09:19.362Z,8.30
2018-07-19T05:10:19.345Z,8.40
2018-07-19T05:11:19.335Z,8.30
2018-07-19T05:12:19.313Z,8.40
2018-07-19T05:13:19.293Z,8.00
2018-07-19T05:14:19.273Z,8.30
2018-07-19T05:15:19.254Z,8.30
2018-07-19T05:16:19.247Z,8.20
2018-07-19T05:17:19.219Z,8.20
2018-07-19T05:18:19.204Z,8.40
2018-07-19T05:19:19.184Z,8.20
2018-07-19T05:20:19.165Z,8.20
2018-07-19T05:21:19.170Z,8.40
2018-07-19T05:22:19.130Z,8.40
2018-07-19T05:23:19.112Z,7.60
2018-07-19T05:24:19.096Z,7.70
2018-07-19T05:25:19.077Z,7.80
2018-07-19T05:26:19.059Z,7.90
2018-07-19T05:27:19.052Z,7.40
2018-07-19T05:28:19.023Z,7.80
2018-07-19T05:29:19.007Z,7.80
2018-07-19T05:30:18.991Z,7.90
2018-07-19T05:31:18.971Z,7.10
2018-07-19T05:32:18.969Z,7.50
2018-07-19T05:33:18.936Z,7.60
2018-07-19T05:34:18.919Z,7.40
2018-07-19T05:35:18.900Z,7.30
2018-07-19T05:36:18.895Z,7.60
2018-07-19T05:37:18.866Z,7.60
2018-07-19T05:38:18.861Z,7.00
2018-07-19T05:39:18.831Z,7.30
2018-07-19T05:40:18.813Z,7.60
2018-07-19T05:41:18.796Z,7.20
2018-07-19T05:42:18.812Z,7.10
2018-07-19T05:43:18.772Z,7.30
2018-07-19T05:44:18.745Z,7.10
2018-07-19T05:45:18.729Z,7.00
2018-07-19T05:46:18.712Z,7.90
2018-07-19T05:47:18.692Z,7.60
2018-07-19T05:48:18.691Z,7.20
2018-07-19T05:49:18.658Z,7.10
2018-07-19T05:50:18.641Z,6.90
2018-07-19T05:51:18.624Z,7.60
2018-07-19T05:52:18.608Z,7.10
2018-07-19T05:53:18.591Z,7.10
2018-07-19T05:54:18.582Z,6.90
2018-07-19T05:55:18.563Z,7.00
2018-07-19T05:56:18.539Z,7.00
2018-07-19T05:57:18.521Z,6.20
2018-07-19T05:58:18.536Z,7.00
2018-07-19T05:59:18.497Z,6.50
2018-07-19T06:00:18.470Z,6.60
2018-07-19T06:01:18.455Z,6.50
2018-07-19T06:02:18.441Z,6.70
2018-07-19T06:03:18.421Z,6.60
2018-07-19T06:04:18.415Z,6.20
2018-07-19T06:05:18.388Z,6.60
2018-07-19T06:06:18.377Z,6.30
2018-07-19T06:07:18.354Z,6.50
2018-07-19T06:08:18.338Z,5.90
2018-07-19T06:09:18.343Z,6.20
2018-07-19T06:10:18.316Z,6.20
2018-07-19T06:11:18.288Z,6.50
2018-07-19T06:12:18.276Z,6.10
2018-07-19T06:13:18.258Z,6.20
2018-07-19T06:14:18.241Z,6.00
2018-07-19T06:15:18.235Z,6.20
2018-07-19T06:16:18.209Z,5.90
2018-07-19T06:17:18.194Z,5.60
2018-07-19T06:18:18.179Z,5.40
2018-07-19T06:19:18.162Z,5.50
2018-07-19T06:20:18.159Z,5.40
2018-07-19T06:21:18.133Z,5.00
2018-07-19T06:22:18.115Z,5.20
2018-07-19T06:23:18.102Z,5.10
2018-07-19T06:24:18.086Z,4.90
2018-07-19T06:25:18.092Z,5.00
2018-07-19T06:26:18.054Z,5.30
2018-07-19T06:27:18.039Z,5.10
2018-07-19T06:28:18.039Z,5.10
2018-07-19T06:29:18.009Z,5.00
2018-07-19T06:30:17.994Z,4.70
2018-07-19T06:31:17.991Z,4.90
2018-07-19T06:32:17.963Z,4.80
2018-07-19T06:33:17.948Z,5.10
2018-07-19T06:34:17.936Z,5.10
2018-07-19T06:35:17.918Z,5.00
2018-07-19T06:36:17.916Z,4.70
2018-07-19T06:37:17.889Z,4.50
2018-07-19T06:38:17.874Z,4.60
2018-07-19T06:39:17.858Z,4.60
2018-07-19T06:40:17.844Z,4.60
2018-07-19T06:41:17.864Z,4.80
2018-07-19T06:42:17.815Z,4.40
2018-07-19T06:43:17.803Z,4.90
2018-07-19T06:44:17.786Z,4.40
2018-07-19T06:45:17.774Z,4.70
2018-07-19T06:46:17.765Z,4.70
2018-07-19T06:47:17.752Z,4.90
2018-07-19T06:48:17.732Z,4.60
2018-07-19T06:49:17.716Z,4.30
2018-07-19T06:50:17.700Z,4.70
2018-07-19T06:51:17.688Z,3.90
2018-07-19T06:52:17.682Z,4.10
2018-07-19T06:53:17.656Z,4.20
2018-07-19T06:54:17.642Z,4.00
2018-07-19T06:55:17.630Z,4.10
2018-07-19T06:56:17.614Z,4.00
2018-07-19T06:57:17.610Z,4.10
2018-07-19T06:58:17.587Z,4.20
2018-07-19T06:59:17.579Z,4.40
2018-07-19T07:00:17.558Z,4.00
2018-07-19T07:01:17.543Z,3.80
2018-07-19T07:02:17.550Z,3.90
2018-07-19T07:03:17.517Z,3.70
2018-07-19T07:04:17.501Z,3.80
2018-07-19T07:05:17.489Z,3.90
2018-07-19T07:06:17.474Z,4.10
2018-07-19T07:07:17.465Z,4.40
2018-07-19T07:08:17.459Z,3.90
2018-07-19T07:09:17.433Z,3.30
2018-07-19T07:10:17.427Z,4.10
2018-07-19T07:11:17.406Z,3.50
2018-07-19T07:12:17.392Z,3.80
2018-07-19T07:13:17.388Z,3.60
2018-07-19T07:14:17.365Z,3.80
2018-07-19T07:15:17.350Z,3.80
2018-07-19T07:16:17.337Z,3.60
2018-07-19T07:17:17.324Z,3.50
2018-07-19T07:18:17.328Z,3.50
2018-07-19T07:19:17.296Z,3.60
2018-07-19T07:20:17.282Z,3.60
2018-07-19T07:21:17.366Z,4.00
2018-07-19T07:22:17.258Z,3.90
2018-07-19T07:23:17.242Z,3.80
2018-07-19T07:24:17.240Z,3.90
2018-07-19T07:25:17.219Z,3.20
2018-07-19T07:26:17.204Z,3.80
2018-07-19T07:27:17.191Z,3.70
2018-07-19T07:28:17.215Z,3.40
2018-07-19T07:29:17.173Z,3.20
2018-07-19T07:30:17.150Z,3.30
2018-07-19T07:31:17.136Z,3.60
2018-07-19T07:32:17.122Z,3.40
2018-07-19T07:33:17.109Z,3.50
2018-07-19T07:34:17.131Z,3.30
2018-07-19T07:35:17.085Z,3.10
2018-07-19T07:36:17.069Z,3.30
2018-07-19T07:37:17.057Z,3.20
2018-07-19T07:38:17.044Z,3.40
2018-07-19T07:39:17.030Z,3.30
2018-07-19T07:40:17.031Z,3.30
2018-07-19T07:41:17.003Z,3.20
2018-07-19T07:42:16.992Z,3.10
2018-07-19T07:43:16.978Z,3.40
2018-07-19T07:44:16.986Z,3.30
2018-07-19T07:45:16.992Z,3.60
2018-07-19T07:46:16.939Z,3.70
2018-07-19T07:47:16.924Z,3.50
2018-07-19T07:48:16.924Z,3.60
2018-07-19T07:49:16.898Z,3.40
2018-07-19T07:50:16.889Z,3.30
2018-07-19T07:51:16.888Z,3.60
2018-07-19T07:52:16.871Z,3.40
2018-07-19T07:53:16.846Z,3.40
2018-07-19T07:54:16.961Z,3.50
2018-07-19T07:55:16.821Z,3.20
2018-07-19T07:56:16.818Z,3.80
2018-07-19T07:57:16.797Z,3.20
2018-07-19T07:58:16.784Z,3.40
2018-07-19T07:59:16.775Z,3.10
2018-07-19T08:00:16.758Z,3.00
2018-07-19T08:01:16.769Z,3.40
2018-07-19T08:02:16.731Z,3.30
2018-07-19T08:03:16.718Z,3.30
2018-07-19T08:04:16.708Z,3.00
2018-07-19T08:05:16.695Z,3.60
2018-07-19T08:06:16.684Z,3.10
2018-07-19T08:07:16.680Z,2.90
2018-07-19T08:08:16.657Z,2.80
2018-07-19T08:09:16.646Z,3.30
2018-07-19T08:10:16.635Z,3.50
2018-07-19T08:11:16.619Z,3.10
2018-07-19T08:12:16.616Z,3.00
2018-07-19T08:13:16.594Z,3.10
2018-07-19T08:14:16.582Z,3.00
2018-07-19T08:15:16.568Z,3.40
2018-07-19T08:16:16.556Z,3.00
2018-07-19T08:17:16.566Z,2.90
2018-07-19T08:18:16.532Z,2.90
2018-07-19T08:19:16.519Z,2.90
2018-07-19T08:20:16.508Z,2.70
2018-07-19T08:21:16.494Z,3.00
2018-07-19T08:22:16.485Z,3.20
2018-07-19T08:23:16.481Z,3.40
2018-07-19T08:24:16.457Z,3.00
2018-07-19T08:25:16.455Z,2.90
2018-07-19T08:26:16.438Z,2.90
2018-07-19T08:27:16.420Z,2.70
2018-07-19T08:28:16.420Z,3.10
2018-07-19T08:29:16.396Z,2.80
2018-07-19T08:30:16.384Z,3.00
2018-07-19T08:31:16.372Z,2.90
2018-07-19T08:32:16.459Z,3.20
2018-07-19T08:33:16.370Z,3.20
2018-07-19T08:34:16.340Z,2.50
2018-07-19T08:35:16.325Z,2.50
2018-07-19T08:36:16.312Z,2.80
2018-07-19T08:37:16.321Z,2.80
2018-07-19T08:38:16.293Z,2.70
2018-07-19T08:39:16.286Z,2.80
2018-07-19T08:40:16.267Z,2.80
2018-07-19T08:41:16.251Z,2.80
2018-07-19T08:42:16.251Z,2.90
2018-07-19T08:43:16.229Z,3.00
2018-07-19T08:44:16.230Z,2.70
2018-07-19T08:45:16.206Z,2.70
2018-07-19T08:46:16.197Z,2.90
2018-07-19T08:47:16.182Z,2.80
2018-07-19T08:48:16.173Z,2.60
2018-07-19T08:49:16.169Z,2.70
2018-07-19T08:50:16.149Z,2.40
2018-07-19T08:51:16.139Z,2.80
2018-07-19T08:52:16.126Z,3.00
2018-07-19T08:53:16.117Z,2.60
2018-07-19T08:54:16.123Z,2.60
2018-07-19T08:55:16.091Z,3.00
2018-07-19T08:57:16.072Z,2.60
2018-07-19T08:58:16.059Z,2.70
2018-07-19T08:59:16.048Z,2.50
2018-07-19T09:00:16.049Z,3.10
2018-07-19T09:01:16.025Z,2.60
2018-07-19T09:02:16.065Z,2.90
2018-07-19T09:03:16.003Z,2.60
2018-07-19T09:04:15.994Z,2.60
2018-07-19T09:05:15.995Z,2.70
2018-07-19T09:06:15.970Z,2.70
2018-07-19T09:07:15.959Z,2.80
2018-07-19T09:08:15.946Z,3.00
2018-07-19T09:09:15.937Z,2.80
2018-07-19T09:10:15.944Z,2.30
2018-07-19T09:11:15.917Z,2.60
2018-07-19T09:12:15.906Z,2.60
2018-07-19T09:13:15.895Z,2.70
2018-07-19T09:14:15.884Z,2.90
2018-07-19T09:15:15.872Z,2.60
2018-07-19T09:16:15.873Z,2.70
2018-07-19T09:17:15.851Z,2.60
2018-07-19T09:18:15.856Z,2.90
2018-07-19T09:19:15.829Z,2.70
2018-07-19T09:20:15.831Z,2.40
2018-07-19T09:21:15.828Z,2.40
2018-07-19T09:22:15.801Z,2.60
2018-07-19T09:23:15.785Z,2.60
2018-07-19T09:24:15.778Z,2.80
2018-07-19T09:25:15.765Z,2.40
2018-07-19T09:26:15.878Z,2.60
2018-07-19T09:27:15.749Z,2.70
2018-07-19T09:28:15.735Z,2.40
2018-07-19T09:29:15.723Z,2.30
2018-07-19T09:30:15.713Z,2.90
2018-07-19T09:31:15.701Z,2.60
2018-07-19T09:32:15.704Z,2.60
2018-07-19T09:33:15.685Z,2.50
2018-07-19T09:34:15.677Z,2.50
2018-07-19T09:35:15.659Z,2.80
2018-07-19T09:36:16.180Z,2.50
2018-07-19T09:37:15.648Z,2.60
2018-07-19T09:38:15.633Z,2.70
2018-07-19T09:39:15.616Z,2.60
2018-07-19T09:40:15.606Z,2.50
2018-07-19T09:41:15.597Z,2.50
2018-07-19T09:42:15.601Z,2.60
2018-07-19T09:43:15.572Z,2.60
2018-07-19T09:44:15.564Z,2.50
2018-07-19T09:45:15.553Z,2.60
2018-07-19T09:46:15.542Z,2.60
2018-07-19T09:47:15.531Z,2.80
2018-07-19T09:48:15.531Z,2.50
2018-07-19T09:49:15.509Z,3.20
2018-07-19T09:50:15.497Z,3.00
2018-07-19T09:51:15.488Z,2.90
2018-07-19T09:52:15.479Z,2.50
2018-07-19T09:53:15.476Z,2.80
2018-07-19T09:54:15.455Z,3.00
2018-07-19T09:55:15.444Z,2.50
2018-07-19T09:56:15.436Z,2.70
2018-07-19T09:57:15.423Z,2.70
2018-07-19T09:58:15.427Z,2.90
2018-07-19T09:59:15.400Z,3.00
2018-07-19T10:00:15.390Z,2.90
2018-07-19T10:01:15.382Z,2.50
2018-07-19T10:02:15.368Z,2.60
2018-07-19T10:03:15.368Z,2.30
2018-07-19T10:04:15.345Z,2.70
2018-07-19T10:05:15.335Z,2.80
2018-07-19T10:06:15.325Z,2.80
2018-07-19T10:07:15.315Z,2.50
2018-07-19T10:08:15.316Z,2.70
2018-07-19T10:09:15.287Z,2.60
2018-07-19T10:10:15.345Z,2.40
2018-07-19T10:11:15.270Z,2.60
2018-07-19T10:12:15.258Z,2.20
2018-07-19T10:13:15.264Z,2.60
2018-07-19T10:14:15.241Z,2.60
2018-07-19T10:15:15.234Z,2.40
2018-07-19T10:16:15.215Z,2.70
2018-07-19T10:17:15.222Z,2.30
2018-07-19T10:18:15.198Z,2.70
2018-07-19T10:19:15.194Z,2.70
2018-07-19T10:20:15.174Z,2.40
2018-07-19T10:21:15.164Z,2.90
2018-07-19T10:22:15.154Z,2.60
2018-07-19T10:23:15.143Z,2.90
2018-07-19T10:24:15.186Z,3.00
2018-07-19T10:25:15.122Z,2.60
2018-07-19T10:26:15.112Z,2.60
2018-07-19T10:27:15.100Z,2.70
2018-07-19T10:28:15.093Z,2.90
2018-07-19T10:29:15.098Z,3.00
2018-07-19T10:30:15.071Z,2.90
2018-07-19T10:31:15.059Z,3.10
2018-07-19T10:32:15.214Z,2.70
2018-07-19T10:33:15.041Z,2.60
2018-07-19T10:34:15.094Z,2.80
2018-07-19T10:35:15.030Z,2.60
2018-07-19T10:36:15.010Z,3.00
2018-07-19T10:37:15.000Z,2.70
2018-07-19T10:38:14.989Z,2.90
2018-07-19T10:39:14.978Z,2.80
2018-07-19T10:40:14.979Z,2.70
2018-07-19T10:41:14.960Z,2.60
2018-07-19T10:42:14.950Z,2.60
2018-07-19T10:43:14.939Z,2.50
2018-07-19T10:44:14.952Z,2.60
2018-07-19T10:45:14.931Z,2.50
2018-07-19T10:46:14.911Z,2.70
2018-07-19T10:47:14.900Z,2.50
2018-07-19T10:48:14.887Z,3.10
2018-07-19T10:49:14.881Z,2.80
2018-07-19T10:50:14.894Z,2.30
2018-07-19T10:51:14.860Z,2.50
2018-07-19T10:52:14.851Z,2.60
2018-07-19T10:53:14.840Z,2.90
2018-07-19T10:54:14.830Z,2.60
2018-07-19T10:55:14.823Z,2.70
2018-07-19T10:56:14.859Z,2.70
2018-07-19T10:57:14.807Z,3.00
2018-07-19T10:58:14.791Z,2.90
2018-07-19T10:59:14.779Z,2.40
2018-07-19T11:00:14.771Z,2.80
2018-07-19T11:01:14.775Z,2.80
2018-07-19T11:02:14.752Z,3.00
2018-07-19T11:03:14.741Z,3.00
2018-07-19T11:04:14.730Z,3.00
2018-07-19T11:05:14.720Z,2.70
2018-07-19T11:06:14.711Z,2.40
2018-07-19T11:07:14.711Z,2.80
2018-07-19T11:08:14.689Z,3.00
2018-07-19T11:09:14.679Z,2.70
2018-07-19T11:10:14.671Z,2.70
2018-07-19T11:11:14.659Z,2.70
2018-07-19T11:12:14.662Z,2.50
2018-07-19T11:13:14.655Z,2.70
2018-07-19T11:14:14.630Z,2.70
2018-07-19T11:15:14.621Z,2.50
2018-07-19T11:16:14.611Z,2.90
2018-07-19T11:17:14.613Z,2.80
2018-07-19T11:18:14.590Z,2.50
2018-07-19T11:19:14.581Z,2.80
2018-07-19T11:20:14.571Z,2.70
2018-07-19T11:21:14.564Z,2.60
2018-07-19T11:22:14.574Z,2.40
2018-07-19T11:23:14.543Z,2.50
2018-07-19T11:24:14.529Z,2.60
2018-07-19T11:25:14.525Z,2.90
2018-07-19T11:26:14.517Z,3.00
2018-07-19T11:27:14.501Z,2.60
2018-07-19T11:28:14.507Z,2.70
2018-07-19T11:29:14.486Z,2.80
2018-07-19T11:30:14.484Z,2.60
2018-07-19T11:31:14.470Z,2.80
2018-07-19T11:32:14.459Z,2.80
2018-07-19T11:33:14.458Z,2.90
2018-07-19T11:34:14.441Z,2.60
2018-07-19T11:35:14.441Z,2.50
2018-07-19T11:36:14.420Z,2.60
2018-07-19T11:37:14.407Z,2.50
2018-07-19T11:38:14.438Z,2.70
2018-07-19T11:39:14.397Z,2.20
2018-07-19T11:40:14.383Z,2.50
2018-07-19T11:41:14.386Z,2.70
2018-07-19T11:42:14.372Z,2.60
2018-07-19T11:43:14.358Z,2.40
2018-07-19T11:44:14.358Z,2.70
2018-07-19T11:45:14.359Z,2.90
2018-07-19T11:46:14.337Z,3.10
2018-07-19T11:47:14.353Z,2.90
2018-07-19T11:48:14.331Z,2.30
2018-07-19T11:49:15.117Z,2.60
2018-07-19T11:50:14.403Z,2.80
2018-07-19T11:51:14.979Z,2.50
2018-07-19T11:52:14.980Z,2.60
2018-07-19T11:53:14.314Z,2.30
2018-07-19T11:54:14.376Z,2.50
2018-07-19T11:55:14.422Z,2.50
2018-07-19T11:56:14.378Z,2.20
2018-07-19T11:57:14.238Z,2.60
2018-07-19T11:58:14.340Z,2.90
2018-07-19T11:59:14.243Z,2.50
2018-07-19T12:00:15.582Z,2.60
2018-07-19T12:01:14.205Z,2.50
2018-07-19T12:02:14.344Z,2.70
2018-07-19T12:03:15.083Z,2.50
2018-07-19T12:04:15.073Z,2.60
2018-07-19T12:05:14.991Z,2.70
2018-07-19T12:06:14.308Z,2.70
2018-07-19T12:07:14.300Z,2.40
2018-07-19T12:08:14.243Z,2.60
2018-07-19T12:09:14.243Z,2.50
2018-07-19T12:10:14.251Z,2.80
2018-07-19T12:11:15.111Z,2.70
2018-07-19T12:12:14.235Z,2.80
2018-07-19T12:13:14.231Z,2.40
2018-07-19T12:14:14.133Z,2.40
2018-07-19T12:15:14.645Z,2.50
2018-07-19T12:16:14.065Z,2.60
2018-07-19T12:17:14.099Z,2.60
2018-07-19T12:18:14.056Z,2.40
2018-07-19T12:19:14.091Z,2.60
2018-07-19T12:20:14.049Z,2.80
2018-07-19T12:21:14.023Z,2.40
2018-07-19T12:22:14.049Z,2.60
2018-07-19T12:23:14.073Z,2.70
2018-07-19T12:24:14.103Z,2.30
2018-07-19T12:25:14.100Z,2.60
2018-07-19T12:26:13.972Z,2.50
2018-07-19T12:27:13.968Z,2.70
2018-07-19T12:28:13.961Z,2.60
2018-07-19T12:29:13.944Z,2.60
2018-07-19T12:30:13.935Z,2.80
2018-07-19T12:31:13.957Z,2.60
2018-07-19T12:32:13.935Z,2.30
2018-07-19T12:33:13.915Z,2.50
2018-07-19T12:34:13.916Z,2.50
2018-07-19T12:35:13.911Z,2.50
2018-07-19T12:36:13.900Z,2.80
2018-07-19T12:37:13.876Z,2.30
2018-07-19T12:38:13.872Z,2.70
2018-07-19T12:39:13.853Z,2.40
2018-07-19T12:40:13.860Z,2.30
2018-07-19T12:41:13.857Z,2.10
2018-07-19T12:42:13.835Z,2.40
2018-07-19T12:43:13.833Z,2.20
2018-07-19T12:44:13.815Z,2.40
2018-07-19T12:45:13.806Z,2.60
2018-07-19T12:46:13.818Z,2.50
2018-07-19T12:47:13.786Z,2.30
2018-07-19T12:48:13.791Z,2.30
2018-07-19T12:49:13.773Z,2.00
2018-07-19T12:50:13.765Z,2.30
2018-07-19T12:51:13.757Z,2.10
2018-07-19T12:52:13.765Z,2.40
2018-07-19T12:53:13.744Z,2.60
2018-07-19T12:54:13.734Z,2.60
2018-07-19T12:55:13.726Z,2.10
2018-07-19T12:56:13.714Z,2.20
2018-07-19T12:57:13.722Z,2.40
2018-07-19T12:58:13.706Z,2.30
2018-07-19T12:59:13.691Z,2.40
2018-07-19T13:00:13.716Z,2.20
2018-07-19T13:01:13.670Z,2.40
2018-07-19T13:02:13.691Z,2.40
2018-07-19T13:03:13.660Z,2.10
2018-07-19T13:04:13.648Z,2.40
2018-07-19T13:05:13.650Z,2.30
2018-07-19T13:06:13.644Z,2.50
2018-07-19T13:07:13.624Z,2.30
2018-07-19T13:08:13.638Z,2.20
2018-07-19T13:09:13.615Z,2.20
2018-07-19T13:10:13.609Z,2.40
2018-07-19T13:11:13.605Z,2.50
2018-07-19T13:12:13.589Z,2.10
2018-07-19T13:13:13.591Z,2.40
2018-07-19T13:14:13.582Z,2.10
2018-07-19T13:15:13.622Z,2.30
2018-07-19T13:16:13.560Z,2.80